sensor_id;sensor_type;location;lat;lon;timestamp;pressure;altitude;pressure_sealevel;temperature;humidity
46347;BME280;32057;47.830;19.046;2023-05-21T00:01:38;100396.47;;;16.64;100.00
46347;BME280;32057;47.830;19.046;2023-05-21T00:04:04;100389.47;;;16.63;100.00
46347;BME280;32057;47.830;19.046;2023-05-21T00:06:35;100394.72;;;16.63;100.00
46347;BME280;32057;47.830;19.046;2023-05-21T00:09:02;100392.97;;;16.66;100.00
46347;BME280;32057;47.830;19.046;2023-05-21T00:11:28;100393.84;;;16.62;100.00
46347;BME280;32057;47.830;19.046;2023-05-21T00:13:53;100393.00;;;16.56;100.00
46347;BME280;32057;47.830;19.046;2023-05-21T00:16:20;100396.53;;;16.48;100.00
46347;BME280;32057;47.830;19.046;2023-05-21T00:18:45;100393.88;;;16.47;100.00
46347;BME280;32057;47.830;19.046;2023-05-21T00:21:11;100391.28;;;16.42;100.00
46347;BME280;32057;47.830;19.046;2023-05-21T00:23:38;100385.16;;;16.39;100.00
46347;BME280;32057;47.830;19.046;2023-05-21T00:26:05;100379.94;;;16.34;100.00
46347;BME280;32057;47.830;19.046;2023-05-21T00:28:31;100384.34;;;16.26;100.00
46347;BME280;32057;47.830;19.046;2023-05-21T00:30:56;100390.47;;;16.22;100.00
46347;BME280;32057;47.830;19.046;2023-05-21T00:33:21;100386.09;;;16.15;100.00
46347;BME280;32057;47.830;19.046;2023-05-21T00:35:50;100393.06;;;16.19;100.00
46347;BME280;32057;47.830;19.046;2023-05-21T00:38:16;100396.59;;;16.02;100.00
46347;BME280;32057;47.830;19.046;2023-05-21T00:40:42;100405.34;;;15.95;100.00
46347;BME280;32057;47.830;19.046;2023-05-21T00:43:07;100401.84;;;15.93;100.00
46347;BME280;32057;47.830;19.046;2023-05-21T00:45:35;100401.00;;;15.88;100.00
46347;BME280;32057;47.830;19.046;2023-05-21T00:48:02;100408.00;;;15.80;100.00
46347;BME280;32057;47.830;19.046;2023-05-21T00:50:28;100411.50;;;15.76;100.00
46347;BME280;32057;47.830;19.046;2023-05-21T00:52:55;100408.88;;;15.76;100.00
46347;BME280;32057;47.830;19.046;2023-05-21T00:55:21;100405.34;;;15.77;100.00
46347;BME280;32057;47.830;19.046;2023-05-21T00:57:46;100397.50;;;15.77;100.00
46347;BME280;32057;47.830;19.046;2023-05-21T01:00:14;100414.09;;;15.79;100.00
46347;BME280;32057;47.830;19.046;2023-05-21T01:02:39;100409.75;;;15.78;100.00
46347;BME280;32057;47.830;19.046;2023-05-21T01:05:05;100407.13;;;15.78;100.00
46347;BME280;32057;47.830;19.046;2023-05-21T01:07:36;100398.34;;;15.79;100.00
46347;BME280;32057;47.830;19.046;2023-05-21T01:10:05;100397.47;;;15.75;100.00
46347;BME280;32057;47.830;19.046;2023-05-21T01:12:32;100398.34;;;15.77;100.00
46347;BME280;32057;47.830;19.046;2023-05-21T01:15:01;100386.13;;;15.78;100.00
46347;BME280;32057;47.830;19.046;2023-05-21T01:17:28;100391.34;;;15.73;100.00
46347;BME280;32057;47.830;19.046;2023-05-21T01:19:58;100393.09;;;15.68;100.00
46347;BME280;32057;47.830;19.046;2023-05-21T01:22:25;100388.72;;;15.62;100.00
46347;BME280;32057;47.830;19.046;2023-05-21T01:24:53;100382.56;;;15.57;100.00
46347;BME280;32057;47.830;19.046;2023-05-21T01:27:20;100381.72;;;15.57;100.00
46347;BME280;32057;47.830;19.046;2023-05-21T01:29:45;100378.22;;;15.58;100.00
46347;BME280;32057;47.830;19.046;2023-05-21T01:32:25;100370.34;;;15.56;100.00
46347;BME280;32057;47.830;19.046;2023-05-21T01:40:33;100378.19;;;15.59;100.00
46347;BME280;32057;47.830;19.046;2023-05-21T01:42:57;100375.56;;;15.39;100.00
46347;BME280;32057;47.830;19.046;2023-05-21T01:45:24;100383.38;;;15.10;100.00
46347;BME280;32057;47.830;19.046;2023-05-21T01:47:53;100387.72;;;14.99;100.00
46347;BME280;32057;47.830;19.046;2023-05-21T01:50:22;100391.16;;;14.88;100.00
46347;BME280;32057;47.830;19.046;2023-05-21T01:52:55;100384.09;;;14.66;100.00
46347;BME280;32057;47.830;19.046;2023-05-21T01:55:22;100383.09;;;14.51;100.00
46347;BME280;32057;47.830;19.046;2023-05-21T01:57:52;100374.38;;;14.46;100.00
46347;BME280;32057;47.830;19.046;2023-05-21T02:00:21;100377.88;;;14.53;100.00
46347;BME280;32057;47.830;19.046;2023-05-21T02:02:47;100377.03;;;14.52;100.00
46347;BME280;32057;47.830;19.046;2023-05-21T02:05:13;100373.47;;;14.41;100.00
46347;BME280;32057;47.830;19.046;2023-05-21T02:07:39;100379.59;;;14.49;100.00
46347;BME280;32057;47.830;19.046;2023-05-21T02:10:05;100375.22;;;14.45;100.00
46347;BME280;32057;47.830;19.046;2023-05-21T02:12:31;100377.00;;;14.48;100.00
46347;BME280;32057;47.830;19.046;2023-05-21T02:14:57;100383.09;;;14.47;100.00
46347;BME280;32057;47.830;19.046;2023-05-21T02:17:22;100379.59;;;14.46;100.00
46347;BME280;32057;47.830;19.046;2023-05-21T02:19:49;100379.56;;;14.39;100.00
46347;BME280;32057;47.830;19.046;2023-05-21T02:22:14;100376.91;;;14.31;100.00
46347;BME280;32057;47.830;19.046;2023-05-21T02:24:40;100381.16;;;14.12;100.00
46347;BME280;32057;47.830;19.046;2023-05-21T02:27:05;100376.75;;;14.09;100.00
46347;BME280;32057;47.830;19.046;2023-05-21T02:29:31;100370.66;;;14.10;100.00
46347;BME280;32057;47.830;19.046;2023-05-21T02:31:57;100377.69;;;14.16;100.00
46347;BME280;32057;47.830;19.046;2023-05-21T02:34:22;100374.22;;;14.19;100.00
46347;BME280;32057;47.830;19.046;2023-05-21T02:36:49;100372.41;;;14.13;100.00
46347;BME280;32057;47.830;19.046;2023-05-21T02:39:17;100381.16;;;14.15;100.00
46347;BME280;32057;47.830;19.046;2023-05-21T02:41:43;100367.19;;;14.10;100.00
46347;BME280;32057;47.830;19.046;2023-05-21T02:44:08;100368.06;;;14.12;100.00
46347;BME280;32057;47.830;19.046;2023-05-21T02:46:33;100366.31;;;14.12;100.00
46347;BME280;32057;47.830;19.046;2023-05-21T02:48:59;100371.53;;;14.06;100.00
46347;BME280;32057;47.830;19.046;2023-05-21T02:51:24;100372.31;;;13.96;100.00
46347;BME280;32057;47.830;19.046;2023-05-21T02:53:50;100376.66;;;13.94;100.00
46347;BME280;32057;47.830;19.046;2023-05-21T02:56:15;100371.44;;;13.94;100.00
46347;BME280;32057;47.830;19.046;2023-05-21T02:58:41;100368.84;;;13.99;100.00
46347;BME280;32057;47.830;19.046;2023-05-21T03:01:06;100374.00;;;13.86;100.00
46347;BME280;32057;47.830;19.046;2023-05-21T03:03:32;100371.31;;;13.82;100.00
46347;BME280;32057;47.830;19.046;2023-05-21T03:05:57;100374.81;;;13.84;100.00
46347;BME280;32057;47.830;19.046;2023-05-21T03:08:23;100374.94;;;13.98;100.00
46347;BME280;32057;47.830;19.046;2023-05-21T03:10:49;100367.91;;;13.89;100.00
46347;BME280;32057;47.830;19.046;2023-05-21T03:13:14;100374.88;;;13.88;100.00
46347;BME280;32057;47.830;19.046;2023-05-21T03:15:39;100375.69;;;13.83;100.00
46347;BME280;32057;47.830;19.046;2023-05-21T03:18:05;100383.44;;;13.70;100.00
46347;BME280;32057;47.830;19.046;2023-05-21T03:20:30;100383.53;;;13.78;100.00
46347;BME280;32057;47.830;19.046;2023-05-21T03:22:56;100378.28;;;13.80;100.00
46347;BME280;32057;47.830;19.046;2023-05-21T03:25:22;100379.16;;;13.79;100.00
46347;BME280;32057;47.830;19.046;2023-05-21T03:27:49;100381.78;;;13.79;100.00
46347;BME280;32057;47.830;19.046;2023-05-21T03:30:15;100380.84;;;13.73;100.00
46347;BME280;32057;47.830;19.046;2023-05-21T03:32:40;100377.34;;;13.70;100.00
46347;BME280;32057;47.830;19.046;2023-05-21T03:35:06;100380.00;;;13.74;100.00
46347;BME280;32057;47.830;19.046;2023-05-21T03:37:31;100374.78;;;13.74;100.00
46347;BME280;32057;47.830;19.046;2023-05-21T03:39:57;100379.13;;;13.74;100.00
46347;BME280;32057;47.830;19.046;2023-05-21T03:42:22;100376.47;;;13.71;100.00
46347;BME280;32057;47.830;19.046;2023-05-21T03:44:48;100371.28;;;13.75;100.00
46347;BME280;32057;47.830;19.046;2023-05-21T03:47:13;100373.88;;;13.72;100.00
46347;BME280;32057;47.830;19.046;2023-05-21T03:49:38;100379.19;;;13.80;100.00
46347;BME280;32057;47.830;19.046;2023-05-21T03:52:04;100383.53;;;13.83;100.00
46347;BME280;32057;47.830;19.046;2023-05-21T03:54:29;100385.34;;;13.90;100.00
46347;BME280;32057;47.830;19.046;2023-05-21T03:56:55;100381.91;;;13.94;100.00
46347;BME280;32057;47.830;19.046;2023-05-21T03:59:20;100379.31;;;13.99;100.00
46347;BME280;32057;47.830;19.046;2023-05-21T04:01:46;100380.25;;;14.08;100.00
46347;BME280;32057;47.830;19.046;2023-05-21T04:04:11;100383.88;;;14.30;100.00
46347;BME280;32057;47.830;19.046;2023-05-21T04:06:36;100378.75;;;14.49;100.00
46347;BME280;32057;47.830;19.046;2023-05-21T04:09:02;100381.47;;;14.64;100.00
46347;BME280;32057;47.830;19.046;2023-05-21T04:11:29;100377.19;;;14.80;100.00
46347;BME280;32057;47.830;19.046;2023-05-21T04:13:55;100382.47;;;15.00;100.00
46347;BME280;32057;47.830;19.046;2023-05-21T04:16:21;100386.03;;;15.16;100.00
46347;BME280;32057;47.830;19.046;2023-05-21T04:18:46;100383.44;;;15.34;100.00
46347;BME280;32057;47.830;19.046;2023-05-21T04:21:12;100385.19;;;15.42;100.00
46347;BME280;32057;47.830;19.046;2023-05-21T04:23:37;100381.72;;;15.57;100.00
46347;BME280;32057;47.830;19.046;2023-05-21T04:26:03;100391.31;;;15.71;100.00
46347;BME280;32057;47.830;19.046;2023-05-21T04:28:29;100394.84;;;15.81;100.00
46347;BME280;32057;47.830;19.046;2023-05-21T04:30:55;100385.25;;;15.80;100.00
46347;BME280;32057;47.830;19.046;2023-05-21T04:33:21;100377.38;;;15.82;100.00
46347;BME280;32057;47.830;19.046;2023-05-21T04:35:49;100388.72;;;15.91;100.00
46347;BME280;32057;47.830;19.046;2023-05-21T04:38:16;100379.97;;;16.09;100.00
46347;BME280;32057;47.830;19.046;2023-05-21T04:40:48;100372.06;;;16.23;100.00
46347;BME280;32057;47.830;19.046;2023-05-21T04:43:18;100376.44;;;16.33;100.00
46347;BME280;32057;47.830;19.046;2023-05-21T04:45:49;100372.88;;;16.48;100.00
46347;BME280;32057;47.830;19.046;2023-05-21T04:48:15;100374.59;;;16.49;100.00
46347;BME280;32057;47.830;19.046;2023-05-21T04:50:42;100382.50;;;16.56;100.00
46347;BME280;32057;47.830;19.046;2023-05-21T04:53:07;100371.94;;;16.68;100.00
46347;BME280;32057;47.830;19.046;2023-05-21T04:55:33;100373.63;;;16.87;100.00
46347;BME280;32057;47.830;19.046;2023-05-21T04:58:04;100369.13;;;17.11;100.00
46347;BME280;32057;47.830;19.046;2023-05-21T05:00:29;100365.50;;;17.34;100.00
46347;BME280;32057;47.830;19.046;2023-05-21T05:02:54;100366.22;;;17.51;100.00
46347;BME280;32057;47.830;19.046;2023-05-21T05:05:20;100369.59;;;17.67;100.00
46347;BME280;32057;47.830;19.046;2023-05-21T05:07:45;100358.97;;;17.79;100.00
46347;BME280;32057;47.830;19.046;2023-05-21T05:10:12;100358.94;;;17.88;100.00
46347;BME280;32057;47.830;19.046;2023-05-21T05:12:37;100357.94;;;17.99;100.00
46347;BME280;32057;47.830;19.046;2023-05-21T05:15:03;100349.97;;;18.09;100.00
46347;BME280;32057;47.830;19.046;2023-05-21T05:17:28;100365.59;;;18.25;100.00
46347;BME280;32057;47.830;19.046;2023-05-21T05:19:54;100363.69;;;18.39;100.00
46347;BME280;32057;47.830;19.046;2023-05-21T05:22:19;100359.16;;;18.52;100.00
46347;BME280;32057;47.830;19.046;2023-05-21T05:24:45;100366.88;;;18.66;99.59
46347;BME280;32057;47.830;19.046;2023-05-21T05:27:10;100365.00;;;18.77;99.48
46347;BME280;32057;47.830;19.046;2023-05-21T05:29:35;100365.84;;;18.82;94.89
46347;BME280;32057;47.830;19.046;2023-05-21T05:32:01;100358.75;;;18.86;96.73
46347;BME280;32057;47.830;19.046;2023-05-21T05:34:26;100357.75;;;18.95;98.90
46347;BME280;32057;47.830;19.046;2023-05-21T05:36:52;100359.44;;;18.99;95.30
46347;BME280;32057;47.830;19.046;2023-05-21T05:39:17;100358.50;;;19.04;96.84
46347;BME280;32057;47.830;19.046;2023-05-21T05:41:42;100354.91;;;19.10;100.00
46347;BME280;32057;47.830;19.046;2023-05-21T05:44:08;100359.22;;;19.16;99.34
46347;BME280;32057;47.830;19.046;2023-05-21T05:46:33;100350.44;;;19.15;98.21
46347;BME280;32057;47.830;19.046;2023-05-21T05:48:58;100349.44;;;19.22;96.76
46347;BME280;32057;47.830;19.046;2023-05-21T05:51:24;100351.97;;;19.32;98.20
46347;BME280;32057;47.830;19.046;2023-05-21T05:53:49;100354.53;;;19.35;98.48
46347;BME280;32057;47.830;19.046;2023-05-21T05:56:15;100342.91;;;19.48;98.66
46347;BME280;32057;47.830;19.046;2023-05-21T05:58:41;100352.28;;;19.67;97.01
46347;BME280;32057;47.830;19.046;2023-05-21T06:01:06;100347.50;;;19.91;99.38
46347;BME280;32057;47.830;19.046;2023-05-21T06:03:32;100350.78;;;20.04;94.50
46347;BME280;32057;47.830;19.046;2023-05-21T06:05:57;100346.97;;;20.19;95.65
46347;BME280;32057;47.830;19.046;2023-05-21T06:08:23;100344.25;;;20.23;94.71
46347;BME280;32057;47.830;19.046;2023-05-21T06:10:48;100337.09;;;20.28;94.29
46347;BME280;32057;47.830;19.046;2023-05-21T06:13:14;100340.38;;;20.41;98.10
46347;BME280;32057;47.830;19.046;2023-05-21T06:15:39;100335.00;;;20.46;98.74
46347;BME280;32057;47.830;19.046;2023-05-21T06:18:07;100334.00;;;20.52;97.39
46347;BME280;32057;47.830;19.046;2023-05-21T06:20:33;100328.69;;;20.53;93.88
46347;BME280;32057;47.830;19.046;2023-05-21T06:22:58;100327.69;;;20.59;94.03
46347;BME280;32057;47.830;19.046;2023-05-21T06:25:23;100322.09;;;20.74;93.93
46347;BME280;32057;47.830;19.046;2023-05-21T06:27:50;100323.59;;;20.86;95.66
46347;BME280;32057;47.830;19.046;2023-05-21T06:30:15;100322.59;;;20.92;92.63
46347;BME280;32057;47.830;19.046;2023-05-21T06:32:41;100314.53;;;20.98;92.51
46347;BME280;32057;47.830;19.046;2023-05-21T06:35:07;100321.34;;;21.08;90.63
46347;BME280;32057;47.830;19.046;2023-05-21T06:37:33;100319.28;;;21.21;89.20
46347;BME280;32057;47.830;19.046;2023-05-21T06:39:58;100312.91;;;21.29;89.06
46347;BME280;32057;47.830;19.046;2023-05-21T06:42:24;100317.03;;;21.41;87.17
46347;BME280;32057;47.830;19.046;2023-05-21T06:44:49;100307.13;;;21.51;86.74
46347;BME280;32057;47.830;19.046;2023-05-21T06:47:15;100306.78;;;21.65;86.52
46347;BME280;32057;47.830;19.046;2023-05-21T06:49:40;100307.38;;;21.75;87.04
46347;BME280;32057;47.830;19.046;2023-05-21T06:52:06;100310.78;;;21.80;87.64
46347;BME280;32057;47.830;19.046;2023-05-21T06:54:31;100309.72;;;21.87;85.35
46347;BME280;32057;47.830;19.046;2023-05-21T06:56:57;100300.72;;;21.93;85.98
46347;BME280;32057;47.830;19.046;2023-05-21T06:59:22;100299.78;;;21.95;81.20
46347;BME280;32057;47.830;19.046;2023-05-21T07:01:47;100305.47;;;22.13;83.67
46347;BME280;32057;47.830;19.046;2023-05-21T07:04:13;100306.97;;;22.23;85.26
46347;BME280;32057;47.830;19.046;2023-05-21T07:06:38;100301.34;;;22.35;81.48
46347;BME280;32057;47.830;19.046;2023-05-21T07:09:04;100293.41;;;22.35;81.66
46347;BME280;32057;47.830;19.046;2023-05-21T07:11:31;100298.56;;;22.40;81.67
46347;BME280;32057;47.830;19.046;2023-05-21T07:13:57;100290.38;;;22.47;81.61
46347;BME280;32057;47.830;19.046;2023-05-21T07:16:24;100293.78;;;22.53;79.22
46347;BME280;32057;47.830;19.046;2023-05-21T07:18:50;100293.31;;;22.68;80.46
46347;BME280;32057;47.830;19.046;2023-05-21T07:21:15;100284.06;;;22.81;84.87
46347;BME280;32057;47.830;19.046;2023-05-21T07:23:40;100287.34;;;22.90;81.70
46347;BME280;32057;47.830;19.046;2023-05-21T07:26:06;100285.22;;;23.01;78.95
46347;BME280;32057;47.830;19.046;2023-05-21T07:28:31;100286.56;;;23.16;83.75
46347;BME280;32057;47.830;19.046;2023-05-21T07:30:57;100290.19;;;23.13;76.45
46347;BME280;32057;47.830;19.046;2023-05-21T07:33:22;100288.34;;;23.15;79.12
46347;BME280;32057;47.830;19.046;2023-05-21T07:35:47;100288.13;;;23.21;78.98
46347;BME280;32057;47.830;19.046;2023-05-21T07:38:13;100277.41;;;23.24;76.50
46347;BME280;32057;47.830;19.046;2023-05-21T07:40:38;100273.22;;;23.44;79.44
46347;BME280;32057;47.830;19.046;2023-05-21T07:43:04;100273.63;;;23.58;78.31
46347;BME280;32057;47.830;19.046;2023-05-21T07:45:29;100267.34;;;23.61;72.38
46347;BME280;32057;47.830;19.046;2023-05-21T07:47:54;100265.78;;;23.80;75.07
46347;BME280;32057;47.830;19.046;2023-05-21T07:50:20;100271.44;;;23.96;65.18
46347;BME280;32057;47.830;19.046;2023-05-21T07:52:46;100272.28;;;23.72;61.09
46347;BME280;32057;47.830;19.046;2023-05-21T07:55:11;100275.25;;;23.89;62.58
46347;BME280;32057;47.830;19.046;2023-05-21T07:57:37;100275.72;;;24.00;63.81
46347;BME280;32057;47.830;19.046;2023-05-21T08:00:03;100276.09;;;24.15;68.85
46347;BME280;32057;47.830;19.046;2023-05-21T08:02:30;100280.09;;;24.27;64.73
46347;BME280;32057;47.830;19.046;2023-05-21T08:04:56;100271.31;;;24.24;63.07
46347;BME280;32057;47.830;19.046;2023-05-21T08:07:21;100276.56;;;24.02;63.15
46347;BME280;32057;47.830;19.046;2023-05-21T08:09:50;100272.47;;;23.92;57.51
46347;BME280;32057;47.830;19.046;2023-05-21T08:12:17;100270.06;;;24.10;63.12
46347;BME280;32057;47.830;19.046;2023-05-21T08:14:43;100280.03;;;24.04;61.19
46347;BME280;32057;47.830;19.046;2023-05-21T08:17:09;100280.16;;;24.00;62.62
46347;BME280;32057;47.830;19.046;2023-05-21T08:19:35;100275.13;;;23.92;61.58
46347;BME280;32057;47.830;19.046;2023-05-21T08:22:01;100276.97;;;23.90;65.21
46347;BME280;32057;47.830;19.046;2023-05-21T08:24:27;100270.56;;;23.96;68.32
46347;BME280;32057;47.830;19.046;2023-05-21T08:26:53;100275.56;;;24.05;71.19
46347;BME280;32057;47.830;19.046;2023-05-21T08:29:18;100272.13;;;24.27;70.10
46347;BME280;32057;47.830;19.046;2023-05-21T08:31:43;100283.66;;;24.51;69.39
46347;BME280;32057;47.830;19.046;2023-05-21T08:34:09;100273.22;;;24.44;57.08
46347;BME280;32057;47.830;19.046;2023-05-21T08:36:34;100270.19;;;24.55;61.06
46347;BME280;32057;47.830;19.046;2023-05-21T08:39:00;100273.22;;;24.44;65.25
46347;BME280;32057;47.830;19.046;2023-05-21T08:41:26;100279.50;;;24.42;64.53
46347;BME280;32057;47.830;19.046;2023-05-21T08:43:55;100266.91;;;24.47;63.69
46347;BME280;32057;47.830;19.046;2023-05-21T08:46:24;100274.69;;;24.53;60.08
46347;BME280;32057;47.830;19.046;2023-05-21T08:48:51;100267.69;;;24.51;61.68
46347;BME280;32057;47.830;19.046;2023-05-21T08:51:20;100266.75;;;24.75;60.36
46347;BME280;32057;47.830;19.046;2023-05-21T08:53:46;100263.28;;;24.73;62.15
46347;BME280;32057;47.830;19.046;2023-05-21T08:56:13;100264.94;;;24.98;64.52
46347;BME280;32057;47.830;19.046;2023-05-21T08:58:40;100262.91;;;25.04;63.18
46347;BME280;32057;47.830;19.046;2023-05-21T09:01:10;100264.19;;;24.94;56.75
46347;BME280;32057;47.830;19.046;2023-05-21T09:03:39;100259.81;;;25.15;55.99
46347;BME280;32057;47.830;19.046;2023-05-21T09:06:09;100255.47;;;25.13;54.53
46347;BME280;32057;47.830;19.046;2023-05-21T09:08:35;100263.75;;;25.29;58.62
46347;BME280;32057;47.830;19.046;2023-05-21T09:11:03;100260.81;;;25.35;63.02
46347;BME280;32057;47.830;19.046;2023-05-21T09:13:30;100265.88;;;25.41;58.52
46347;BME280;32057;47.830;19.046;2023-05-21T09:15:57;100260.88;;;25.33;53.12
46347;BME280;32057;47.830;19.046;2023-05-21T09:18:23;100253.38;;;25.21;55.36
46347;BME280;32057;47.830;19.046;2023-05-21T09:20:48;100256.09;;;25.19;57.38
46347;BME280;32057;47.830;19.046;2023-05-21T09:23:16;100266.13;;;25.13;55.12
46347;BME280;32057;47.830;19.046;2023-05-21T09:25:46;100260.75;;;25.14;61.63
46347;BME280;32057;47.830;19.046;2023-05-21T09:28:13;100254.59;;;25.12;54.27
46347;BME280;32057;47.830;19.046;2023-05-21T09:30:44;100250.00;;;25.16;62.43
46347;BME280;32057;47.830;19.046;2023-05-21T09:33:09;100246.44;;;25.17;54.18
46347;BME280;32057;47.830;19.046;2023-05-21T09:35:36;100248.47;;;25.32;59.00
46347;BME280;32057;47.830;19.046;2023-05-21T09:38:07;100241.63;;;25.27;59.35
46347;BME280;32057;47.830;19.046;2023-05-21T09:40:34;100241.75;;;25.23;59.61
46347;BME280;32057;47.830;19.046;2023-05-21T09:42:59;100247.72;;;25.51;59.19
46347;BME280;32057;47.830;19.046;2023-05-21T09:45:26;100245.09;;;25.49;57.96
46347;BME280;32057;47.830;19.046;2023-05-21T09:47:54;100238.97;;;25.47;53.83
46347;BME280;32057;47.830;19.046;2023-05-21T09:50:24;100249.19;;;25.78;57.52
46347;BME280;32057;47.830;19.046;2023-05-21T09:52:52;100248.16;;;25.81;60.53
46347;BME280;32057;47.830;19.046;2023-05-21T09:55:24;100245.78;;;25.75;56.59
46347;BME280;32057;47.830;19.046;2023-05-21T09:57:50;100244.97;;;25.73;59.06
46347;BME280;32057;47.830;19.046;2023-05-21T10:02:47;100237.22;;;25.87;58.70
46347;BME280;32057;47.830;19.046;2023-05-21T10:05:14;100238.47;;;26.00;57.24
46347;BME280;32057;47.830;19.046;2023-05-21T10:07:50;100236.31;;;26.09;50.90
46347;BME280;32057;47.830;19.046;2023-05-21T10:10:19;100232.78;;;26.08;52.91
46347;BME280;32057;47.830;19.046;2023-05-21T10:12:46;100236.81;;;26.17;52.67
46347;BME280;32057;47.830;19.046;2023-05-21T10:15:19;100230.53;;;26.18;56.00
46347;BME280;32057;47.830;19.046;2023-05-21T10:17:47;100238.34;;;26.22;54.81
46347;BME280;32057;47.830;19.046;2023-05-21T10:20:13;100228.66;;;26.20;56.77
46347;BME280;32057;47.830;19.046;2023-05-21T10:22:39;100214.84;;;26.31;59.01
46347;BME280;32057;47.830;19.046;2023-05-21T10:25:08;100223.72;;;26.50;61.85
46347;BME280;32057;47.830;19.046;2023-05-21T10:27:35;100219.31;;;26.49;55.67
46347;BME280;32057;47.830;19.046;2023-05-21T10:30:02;100219.81;;;26.38;52.91
46347;BME280;32057;47.830;19.046;2023-05-21T10:32:29;100227.09;;;26.35;57.62
46347;BME280;32057;47.830;19.046;2023-05-21T10:34:56;100221.19;;;26.28;52.88
46347;BME280;32057;47.830;19.046;2023-05-21T10:37:22;100218.31;;;26.33;54.16
46347;BME280;32057;47.830;19.046;2023-05-21T10:39:48;100216.56;;;26.51;63.99
46347;BME280;32057;47.830;19.046;2023-05-21T10:44:58;100212.25;;;26.67;59.64
46347;BME280;32057;47.830;19.046;2023-05-21T10:48:01;100206.69;;;26.53;57.63
46347;BME280;32057;47.830;19.046;2023-05-21T10:56:35;100204.47;;;26.62;62.24
46347;BME280;32057;47.830;19.046;2023-05-21T11:01:39;100208.56;;;26.51;53.70
46347;BME280;32057;47.830;19.046;2023-05-21T11:04:06;100204.44;;;26.43;51.83
46347;BME280;32057;47.830;19.046;2023-05-21T11:06:32;100191.13;;;26.62;58.48
46347;BME280;32057;47.830;19.046;2023-05-21T11:09:15;100200.00;;;26.63;55.60
46347;BME280;32057;47.830;19.046;2023-05-21T11:11:48;100189.50;;;26.77;53.41
46347;BME280;32057;47.830;19.046;2023-05-21T11:14:36;100182.75;;;26.88;58.97
46347;BME280;32057;47.830;19.046;2023-05-21T11:17:14;100187.47;;;27.00;58.99
46347;BME280;32057;47.830;19.046;2023-05-21T11:19:44;100191.91;;;27.18;63.52
46347;BME280;32057;47.830;19.046;2023-05-21T11:22:25;100191.13;;;27.16;56.69
46347;BME280;32057;47.830;19.046;2023-05-21T11:24:52;100190.16;;;27.17;55.76
46347;BME280;32057;47.830;19.046;2023-05-21T11:27:37;100180.28;;;27.19;54.38
46347;BME280;32057;47.830;19.046;2023-05-21T11:30:15;100186.94;;;26.93;54.67
46347;BME280;32057;47.830;19.046;2023-05-21T11:38:09;100179.16;;;26.89;52.47
46347;BME280;32057;47.830;19.046;2023-05-21T11:40:34;100178.00;;;26.94;51.59
46347;BME280;32057;47.830;19.046;2023-05-21T11:43:00;100171.63;;;26.97;52.62
46347;BME280;32057;47.830;19.046;2023-05-21T11:45:30;100181.84;;;27.06;60.69
46347;BME280;32057;47.830;19.046;2023-05-21T11:47:56;100173.06;;;27.04;54.67
46347;BME280;32057;47.830;19.046;2023-05-21T11:50:23;100177.03;;;26.95;56.72
46347;BME280;32057;47.830;19.046;2023-05-21T11:52:49;100173.06;;;27.04;59.86
46347;BME280;32057;47.830;19.046;2023-05-21T11:55:20;100174.47;;;27.11;58.45
46347;BME280;32057;47.830;19.046;2023-05-21T11:57:46;100163.78;;;27.11;58.52
46347;BME280;32057;47.830;19.046;2023-05-21T12:00:14;100160.00;;;27.15;51.44
46347;BME280;32057;47.830;19.046;2023-05-21T12:02:44;100162.72;;;27.33;53.32
46347;BME280;32057;47.830;19.046;2023-05-21T12:05:10;100155.88;;;27.45;56.88
46347;BME280;32057;47.830;19.046;2023-05-21T12:07:36;100158.47;;;27.46;54.39
46347;BME280;32057;47.830;19.046;2023-05-21T12:10:02;100163.69;;;27.48;53.47
46347;BME280;32057;47.830;19.046;2023-05-21T12:12:28;100168.66;;;27.55;53.48
46347;BME280;32057;47.830;19.046;2023-05-21T12:14:57;100156.38;;;27.51;50.83
46347;BME280;32057;47.830;19.046;2023-05-21T12:17:23;100153.06;;;27.30;54.15
46347;BME280;32057;47.830;19.046;2023-05-21T12:19:50;100152.41;;;27.25;53.66
46347;BME280;32057;47.830;19.046;2023-05-21T12:22:17;100151.50;;;27.26;50.34
46347;BME280;32057;47.830;19.046;2023-05-21T12:24:43;100152.94;;;27.14;52.58
46347;BME280;32057;47.830;19.046;2023-05-21T12:27:09;100148.03;;;27.24;59.11
46347;BME280;32057;47.830;19.046;2023-05-21T12:29:40;100142.72;;;27.22;55.53
46347;BME280;32057;47.830;19.046;2023-05-21T12:32:08;100145.00;;;27.13;53.26
46347;BME280;32057;47.830;19.046;2023-05-21T12:34:51;100132.44;;;27.15;49.17
46347;BME280;32057;47.830;19.046;2023-05-21T12:37:25;100132.19;;;27.19;51.42
46347;BME280;32057;47.830;19.046;2023-05-21T12:39:55;100142.72;;;27.22;51.93
46347;BME280;32057;47.830;19.046;2023-05-21T12:44:51;100148.06;;;26.70;50.03
46347;BME280;32057;47.830;19.046;2023-05-21T12:47:17;100131.06;;;26.71;55.51
46347;BME280;32057;47.830;19.046;2023-05-21T12:49:44;100135.38;;;26.74;53.77
46347;BME280;32057;47.830;19.046;2023-05-21T12:52:13;100126.53;;;26.73;49.12
46347;BME280;32057;47.830;19.046;2023-05-21T12:54:40;100128.03;;;26.79;55.49
46347;BME280;32057;47.830;19.046;2023-05-21T12:57:14;100135.25;;;26.77;49.22
46347;BME280;32057;47.830;19.046;2023-05-21T12:59:47;100128.06;;;26.60;56.66
46347;BME280;32057;47.830;19.046;2023-05-21T13:02:19;100133.50;;;26.39;53.57